Time;durP1;ratioP1;P1;durP2;ratioP2;P2;SDS_P1;SDS_P2;PMS_P1;PMS_P2;Temp;Humidity;BMP_temperature;BMP_pressure;BME280_temperature;BME280_humidity;BME280_pressure;Samples;Min_cycle;Max_cycle;Signal;HPM_P1;HPM_P2
2021/08/08 00:02:00;;;;;;;11.77;5.55;;;;;;;15.13;100.00;100213.50;4982254;28;20058;-71
2021/08/08 00:04:27;;;;;;;15.30;5.40;;;;;;;15.12;100.00;100219.88;4977862;28;20490;-71
2021/08/08 00:06:55;;;;;;;11.55;5.78;;;;;;;15.13;100.00;100223.41;4978441;28;20390;-72
2021/08/08 00:09:24;;;;;;;14.98;5.85;;;;;;;15.13;100.00;100223.41;4980280;28;20074;-71
2021/08/08 00:11:52;;;;;;;12.85;5.32;;;;;;;15.16;100.00;100230.44;4979271;28;20322;-71
2021/08/08 00:14:21;;;;;;;11.20;4.60;;;;;;;15.19;100.00;100238.28;4982825;28;20058;-71
2021/08/08 00:16:49;;;;;;;11.68;5.00;;;;;;;15.23;100.00;100238.00;4979706;28;20180;-71
2021/08/08 00:19:17;;;;;;;14.65;5.32;;;;;;;15.23;100.00;100240.69;4982100;28;20433;-71
2021/08/08 00:21:44;;;;;;;14.43;5.57;;;;;;;15.29;100.00;100245.72;4977713;28;20316;-73
2021/08/08 00:24:12;;;;;;;13.60;5.63;;;;;;;15.34;100.00;100241.88;4978804;28;20069;-72
2021/08/08 00:26:41;;;;;;;9.73;5.53;;;;;;;15.31;100.00;100237.56;4979944;28;20136;-72
2021/08/08 00:29:09;;;;;;;13.95;5.40;;;;;;;15.41;100.00;100240.53;4979578;28;20081;-72
2021/08/08 00:31:37;;;;;;;13.48;6.07;;;;;;;15.47;100.00;100245.53;4980083;28;20377;-72
2021/08/08 00:34:04;;;;;;;15.13;6.18;;;;;;;15.50;100.00;100250.72;4979087;28;20148;-72
2021/08/08 00:36:34;;;;;;;14.05;6.25;;;;;;;15.54;100.00;100243.31;4980908;28;20047;-72
2021/08/08 00:39:02;;;;;;;18.42;6.63;;;;;;;15.59;100.00;100244.75;4980681;28;20141;-72
2021/08/08 00:41:30;;;;;;;17.17;7.10;;;;;;;15.65;100.00;100241.69;4980655;28;20062;-72
2021/08/08 00:43:59;;;;;;;14.45;7.43;;;;;;;15.75;100.00;100247.41;4982092;28;20070;-72
2021/08/08 00:46:26;;;;;;;15.95;7.13;;;;;;;15.81;100.00;100246.16;4979132;28;20062;-73
2021/08/08 00:48:55;;;;;;;17.33;7.50;;;;;;;15.91;100.00;100249.97;4982065;28;20066;-72
2021/08/08 00:51:22;;;;;;;18.52;7.53;;;;;;;15.97;100.00;100241.53;4980545;28;20101;-72
2021/08/08 00:53:51;;;;;;;17.75;7.85;;;;;;;15.94;100.00;100259.69;4982815;28;20058;-72
2021/08/08 00:56:19;;;;;;;16.75;7.63;;;;;;;15.81;100.00;100264.97;4981164;28;20066;-72
2021/08/08 00:58:46;;;;;;;13.93;6.75;;;;;;;15.76;100.00;100272.47;4979783;28;20067;-72
2021/08/08 01:01:18;;;;;;;18.85;7.35;;;;;;;15.82;100.00;100272.94;4979221;28;20483;-70
2021/08/08 01:03:47;;;;;;;15.00;5.78;;;;;;;15.72;100.00;100269.06;4977170;28;20057;-70
2021/08/08 01:06:20;;;;;;;14.70;6.30;;;;;;;15.72;100.00;100268.22;4980871;28;20088;-70
2021/08/08 01:08:52;;;;;;;15.13;6.45;;;;;;;15.67;100.00;100277.41;4980333;28;20069;-70
2021/08/08 01:11:21;;;;;;;13.60;6.47;;;;;;;15.66;100.00;100286.47;4981549;28;20054;-70
2021/08/08 01:13:49;;;;;;;14.93;6.28;;;;;;;15.66;100.00;100283.78;4979355;28;20112;-71
2021/08/08 01:16:21;;;;;;;11.90;5.57;;;;;;;15.68;100.00;100289.03;4978220;28;20076;-70
2021/08/08 01:18:50;;;;;;;19.80;6.90;;;;;;;15.73;100.00;100296.81;4980581;28;20090;-70
2021/08/08 01:21:21;;;;;;;20.98;6.88;;;;;;;15.64;100.00;100293.75;4979858;28;20070;-70
2021/08/08 01:23:55;;;;;;;19.00;6.30;;;;;;;15.70;100.00;100295.22;4980800;28;20477;-70
2021/08/08 01:26:24;;;;;;;16.20;7.35;;;;;;;15.68;100.00;100294.41;4981807;28;20070;-71
2021/08/08 01:28:54;;;;;;;13.30;6.90;;;;;;;15.72;100.00;100301.34;4981948;28;20075;-70
2021/08/08 01:31:22;;;;;;;15.63;6.50;;;;;;;15.76;100.00;100302.91;4980111;28;20058;-70
2021/08/08 01:33:50;;;;;;;15.32;7.25;;;;;;;15.75;100.00;100309.28;4980159;28;20049;-70
2021/08/08 01:36:19;;;;;;;20.80;7.15;;;;;;;15.73;100.00;100304.91;4979555;28;20069;-70
2021/08/08 01:38:55;;;;;;;20.08;6.97;;;;;;;15.73;100.00;100321.03;4979376;28;20097;-70
2021/08/08 01:41:26;;;;;;;19.60;6.88;;;;;;;15.76;100.00;100319.03;4982201;28;20068;-70
2021/08/08 01:43:56;;;;;;;20.10;7.43;;;;;;;15.69;100.00;100326.59;4980487;28;20114;-70
2021/08/08 01:46:25;;;;;;;14.38;6.47;;;;;;;15.65;100.00;100324.22;4980288;28;20071;-70
2021/08/08 01:48:55;;;;;;;14.65;6.60;;;;;;;15.64;100.00;100331.41;4978226;28;20061;-70
2021/08/08 01:51:24;;;;;;;15.70;6.07;;;;;;;15.66;100.00;100334.88;4979575;28;20070;-70
2021/08/08 01:53:54;;;;;;;14.32;6.53;;;;;;;15.58;100.00;100334.47;4981266;28;20500;-70
2021/08/08 01:56:23;;;;;;;13.52;6.05;;;;;;;15.54;100.00;100345.50;4980661;28;20112;-70
2021/08/08 01:58:50;;;;;;;25.40;7.07;;;;;;;15.52;100.00;100342.91;4980127;28;20061;-70
2021/08/08 02:01:19;;;;;;;16.98;6.30;;;;;;;15.53;100.00;100338.38;4978598;28;20367;-70
2021/08/08 02:03:46;;;;;;;17.92;6.22;;;;;;;15.53;100.00;100347.34;4979226;28;20074;-70
2021/08/08 02:06:14;;;;;;;17.38;6.00;;;;;;;15.52;100.00;100348.28;4979673;28;20120;-70
2021/08/08 02:08:42;;;;;;;16.08;6.20;;;;;;;15.53;99.65;100360.78;4978704;28;20458;-70
2021/08/08 02:11:11;;;;;;;15.00;6.32;;;;;;;15.53;99.69;100366.16;4978628;28;20061;-70
2021/08/08 02:13:39;;;;;;;17.77;6.15;;;;;;;15.52;99.87;100366.25;4978958;28;20113;-70
2021/08/08 02:16:07;;;;;;;16.08;5.65;;;;;;;15.48;100.00;100377.19;4980093;28;20073;-70
2021/08/08 02:18:35;;;;;;;16.13;6.00;;;;;;;15.51;98.92;100370.78;4980944;28;20362;-70
2021/08/08 02:21:03;;;;;;;10.60;5.07;;;;;;;15.51;98.30;100373.47;4981001;28;20093;-70
2021/08/08 02:23:31;;;;;;;13.45;5.80;;;;;;;15.50;98.70;100369.88;4980598;28;20090;-70
2021/08/08 02:25:59;;;;;;;11.95;5.72;;;;;;;15.50;99.09;100377.94;4982877;28;20050;-71
2021/08/08 02:28:28;;;;;;;20.17;6.72;;;;;;;15.47;98.35;100375.44;4981477;28;20066;-70
2021/08/08 02:30:56;;;;;;;14.18;6.47;;;;;;;15.45;98.80;100384.56;4980032;28;20070;-70
2021/08/08 02:33:24;;;;;;;20.08;6.20;;;;;;;15.40;98.58;100389.34;4983712;28;20062;-70
2021/08/08 02:35:52;;;;;;;14.77;5.90;;;;;;;15.37;99.20;100390.38;4984563;28;20062;-71
2021/08/08 02:38:20;;;;;;;14.43;5.70;;;;;;;15.34;99.09;100393.28;4983599;28;20112;-70
2021/08/08 02:40:48;;;;;;;14.18;6.13;;;;;;;15.36;99.11;100399.41;4981821;28;20061;-71
2021/08/08 02:43:15;;;;;;;19.38;6.13;;;;;;;15.35;99.16;100405.75;4982507;28;20133;-71
2021/08/08 02:45:49;;;;;;;15.38;6.10;;;;;;;15.25;99.47;100391.97;4982830;28;20265;-71
2021/08/08 02:48:17;;;;;;;15.70;5.72;;;;;;;15.23;99.54;100407.31;4982258;28;20062;-71
2021/08/08 02:50:45;;;;;;;19.05;5.82;;;;;;;15.24;99.75;100414.44;4982637;28;20066;-70
2021/08/08 02:53:12;;;;;;;11.45;5.63;;;;;;;15.17;98.92;100415.75;4983171;28;20098;-71
2021/08/08 02:55:40;;;;;;;14.50;6.30;;;;;;;15.10;99.04;100415.25;4979626;28;20055;-70
2021/08/08 02:58:08;;;;;;;14.93;6.05;;;;;;;15.11;98.42;100414.28;4981369;28;20066;-71
2021/08/08 03:00:36;;;;;;;15.52;5.57;;;;;;;15.06;98.35;100426.25;4981222;28;20463;-70
2021/08/08 03:03:06;;;;;;;11.35;5.90;;;;;;;14.97;98.63;100435.72;4979461;28;20093;-70
2021/08/08 03:05:34;;;;;;;17.83;5.95;;;;;;;14.90;98.89;100432.50;4979333;28;20078;-71
2021/08/08 03:08:02;;;;;;;12.77;5.57;;;;;;;14.88;99.23;100430.84;4980855;28;20474;-70
2021/08/08 03:10:30;;;;;;;13.18;5.60;;;;;;;14.85;98.75;100431.91;4982710;28;20066;-71
2021/08/08 03:12:58;;;;;;;12.77;5.30;;;;;;;14.80;99.07;100442.03;4982530;28;20132;-71
2021/08/08 03:15:25;;;;;;;20.25;6.90;;;;;;;14.77;99.19;100449.41;4982779;28;20089;-71
2021/08/08 03:17:53;;;;;;;17.08;6.03;;;;;;;14.73;99.39;100446.88;4981642;28;20324;-71
2021/08/08 03:20:22;;;;;;;16.08;5.57;;;;;;;14.72;99.41;100445.13;4984470;28;20066;-71
2021/08/08 03:22:52;;;;;;;16.35;5.72;;;;;;;14.65;99.56;100448.25;4980397;28;20456;-71
2021/08/08 03:25:20;;;;;;;32.45;7.30;;;;;;;14.68;98.51;100445.41;4979324;28;20116;-71
2021/08/08 03:27:50;;;;;;;17.25;6.38;;;;;;;14.69;99.40;100452.50;4983771;28;20152;-71
2021/08/08 03:30:19;;;;;;;13.30;5.68;;;;;;;14.65;99.30;100446.44;4981996;28;20971;-71
2021/08/08 03:32:46;;;;;;;13.82;5.72;;;;;;;14.71;98.89;100455.94;4981436;28;20074;-71
2021/08/08 03:35:14;;;;;;;11.93;5.38;;;;;;;14.64;99.12;100460.81;4984497;28;20085;-71
2021/08/08 03:37:43;;;;;;;14.43;6.30;;;;;;;14.73;98.90;100454.06;4982293;28;20480;-71
2021/08/08 03:40:13;;;;;;;16.45;6.15;;;;;;;14.74;98.95;100462.03;4983839;28;20046;-71
2021/08/08 03:42:40;;;;;;;14.32;5.70;;;;;;;14.74;98.93;100463.84;4980861;28;20134;-70
2021/08/08 03:45:09;;;;;;;16.52;5.57;;;;;;;14.76;99.77;100467.31;4982255;28;20066;-71
2021/08/08 03:47:37;;;;;;;16.45;6.90;;;;;;;14.80;100.00;100465.34;4976733;28;20062;-71
2021/08/08 03:50:05;;;;;;;18.42;6.00;;;;;;;14.81;100.00;100472.44;4981078;28;20667;-71
2021/08/08 03:52:33;;;;;;;14.68;5.65;;;;;;;14.83;99.39;100475.88;4981742;28;20116;-71
2021/08/08 03:55:02;;;;;;;18.38;6.28;;;;;;;14.83;100.00;100473.22;4979987;28;20062;-71
2021/08/08 03:57:30;;;;;;;15.20;5.82;;;;;;;14.83;100.00;100484.84;4978808;28;20074;-71
2021/08/08 03:59:58;;;;;;;14.77;6.25;;;;;;;14.82;100.00;100480.41;4981167;28;20112;-71
2021/08/08 04:02:26;;;;;;;20.80;6.68;;;;;;;14.81;100.00;100473.28;4980993;28;20070;-71
2021/08/08 04:04:54;;;;;;;14.57;6.28;;;;;;;14.87;100.00;100488.22;4981975;28;20152;-71
2021/08/08 04:07:22;;;;;;;17.00;5.65;;;;;;;14.88;99.71;100490.81;4981758;28;20066;-71
2021/08/08 04:09:50;;;;;;;16.27;6.00;;;;;;;14.92;99.88;100492.38;4979464;28;20423;-71
2021/08/08 04:12:19;;;;;;;9.93;4.50;;;;;;;15.00;98.85;100500.03;4977755;28;20050;-71
2021/08/08 04:14:47;;;;;;;15.45;5.35;;;;;;;15.05;99.03;100497.06;4981907;28;20093;-71
2021/08/08 04:17:17;;;;;;;16.15;5.40;;;;;;;15.03;99.32;100490.91;4977328;28;20065;-71
2021/08/08 04:19:45;;;;;;;19.08;5.82;;;;;;;15.10;98.01;100500.34;4981404;28;20065;-71
2021/08/08 04:22:13;;;;;;;14.95;5.68;;;;;;;15.12;97.80;100496.63;4978581;28;20062;-71
2021/08/08 04:24:41;;;;;;;16.80;5.55;;;;;;;15.13;97.27;100502.88;4979840;28;20062;-71
2021/08/08 04:27:08;;;;;;;18.67;5.00;;;;;;;15.12;96.80;100498.47;4982445;28;20165;-71
2021/08/08 04:29:38;;;;;;;19.77;5.30;;;;;;;15.16;95.50;100508.06;4979171;28;20069;-70
2021/08/08 04:32:06;;;;;;;13.57;4.03;;;;;;;15.11;96.08;100507.47;4980451;28;20042;-70
2021/08/08 04:34:33;;;;;;;14.02;4.70;;;;;;;15.11;95.44;100507.47;4979872;28;20475;-70
2021/08/08 04:37:02;;;;;;;10.88;4.20;;;;;;;15.11;95.59;100513.69;4981691;28;20152;-70
2021/08/08 04:39:30;;;;;;;21.33;4.57;;;;;;;15.12;95.76;100509.22;4984704;28;20429;-70
2021/08/08 04:41:58;;;;;;;30.73;7.00;;;;;;;15.11;96.11;100515.53;4980935;28;20156;-70
2021/08/08 04:44:25;;;;;;;21.33;6.25;;;;;;;15.09;97.79;100523.66;4979629;28;20051;-70
2021/08/08 04:46:54;;;;;;;15.07;5.65;;;;;;;15.07;99.36;100530.09;4979068;28;20097;-70
2021/08/08 04:49:22;;;;;;;13.93;5.70;;;;;;;15.07;99.75;100528.28;4979221;28;20062;-71
2021/08/08 04:51:50;;;;;;;17.48;5.97;;;;;;;15.10;99.80;100519.16;4979920;28;20057;-70
2021/08/08 04:54:18;;;;;;;15.05;6.53;;;;;;;15.10;100.00;100524.53;4980354;28;20078;-70
2021/08/08 04:56:46;;;;;;;20.42;6.13;;;;;;;15.09;100.00;100526.34;4980246;28;20663;-70
2021/08/08 04:59:14;;;;;;;22.08;5.85;;;;;;;15.06;100.00;100533.72;4978978;28;20062;-71
2021/08/08 05:01:41;;;;;;;19.70;6.50;;;;;;;15.06;100.00;100533.72;4980922;28;20069;-71
2021/08/08 05:04:11;;;;;;;20.50;7.35;;;;;;;15.05;100.00;100540.94;4983355;28;20518;-70
2021/08/08 05:06:40;;;;;;;21.05;6.18;;;;;;;15.01;100.00;100533.97;4979579;28;20073;-70
2021/08/08 05:09:07;;;;;;;19.20;5.80;;;;;;;15.03;100.00;100547.31;4980036;28;20089;-73
2021/08/08 05:11:35;;;;;;;22.77;5.88;;;;;;;15.03;100.00;100541.94;4978539;28;20139;-71
2021/08/08 05:14:03;;;;;;;16.40;5.85;;;;;;;14.99;100.00;100557.38;4979423;28;20074;-71
2021/08/08 05:16:31;;;;;;;25.05;6.45;;;;;;;14.97;100.00;100553.91;4978609;28;20092;-71
2021/08/08 05:18:59;;;;;;;17.48;6.68;;;;;;;14.89;100.00;100554.31;4980044;28;20046;-71
2021/08/08 05:21:28;;;;;;;17.95;6.43;;;;;;;14.87;100.00;100552.69;4979516;28;20418;-73
2021/08/08 05:23:56;;;;;;;19.38;7.40;;;;;;;14.85;100.00;100557.28;4979635;28;20050;-71
2021/08/08 05:26:23;;;;;;;24.30;9.55;;;;;;;14.75;100.00;100565.81;4981505;28;20073;-71
2021/08/08 05:28:51;;;;;;;16.52;6.90;;;;;;;14.79;100.00;100563.81;4978127;28;20541;-70
2021/08/08 05:31:19;;;;;;;17.08;6.72;;;;;;;14.80;100.00;100576.31;4978664;28;20042;-71
2021/08/08 05:33:47;;;;;;;17.05;6.72;;;;;;;14.81;100.00;100575.34;4980673;28;20061;-71
2021/08/08 05:36:14;;;;;;;16.77;6.68;;;;;;;14.68;nan;100576.97;4980923;28;20086;-73
2021/08/08 05:38:44;;;;;;;22.25;7.35;;;;;;;14.58;100.00;100579.25;4977856;28;20054;-71
2021/08/08 05:41:12;;;;;;;22.13;6.82;;;;;;;14.62;100.00;100574.63;4980006;28;20095;-70
2021/08/08 05:43:40;;;;;;;22.77;6.88;;;;;;;14.53;100.00;100571.44;4979792;28;20063;-73
2021/08/08 05:46:08;;;;;;;23.27;6.80;;;;;;;14.51;100.00;100576.03;4979063;28;20379;-69
2021/08/08 05:48:36;;;;;;;19.13;6.78;;;;;;;14.39;100.00;100577.53;4978177;28;20665;-69
2021/08/08 05:51:03;;;;;;;19.80;6.88;;;;;;;14.34;100.00;100584.09;4980094;28;20448;-72
2021/08/08 05:53:41;;;;;;;17.70;6.78;;;;;;;14.36;100.00;100584.88;4979409;28;20069;-73
2021/08/08 05:56:10;;;;;;;17.27;5.90;;;;;;;14.36;100.00;100591.09;4980448;28;20058;-71
2021/08/08 05:58:38;;;;;;;27.38;6.57;;;;;;;14.36;100.00;100596.47;4979386;28;20062;-72
2021/08/08 06:01:06;;;;;;;22.88;7.22;;;;;;;14.41;100.00;100588.19;4980112;28;20070;-70
2021/08/08 06:03:34;;;;;;;17.27;6.10;;;;;;;14.47;100.00;100590.56;4977748;28;20345;-71
2021/08/08 06:06:02;;;;;;;25.10;6.82;;;;;;;14.50;100.00;100601.13;4980580;28;20058;-70
2021/08/08 06:08:30;;;;;;;24.30;7.15;;;;;;;14.63;100.00;100601.38;4981014;28;20062;-69
2021/08/08 06:10:58;;;;;;;30.38;7.78;;;;;;;14.63;100.00;100596.00;4980819;28;20070;-70
2021/08/08 06:13:29;;;;;;;18.92;6.97;;;;;;;14.68;100.00;100617.25;4979208;28;20069;-69
2021/08/08 06:15:56;;;;;;;25.27;7.10;;;;;;;14.82;100.00;100614.69;4980110;28;20062;-69
2021/08/08 06:18:24;;;;;;;24.00;7.53;;;;;;;14.73;100.00;100620.56;4980567;28;20345;-70
2021/08/08 06:20:52;;;;;;;29.63;7.65;;;;;;;14.74;100.00;100633.03;4977626;28;20066;-70
2021/08/08 06:23:20;;;;;;;24.73;8.77;;;;;;;15.21;100.00;100626.06;4979512;28;20093;-70
2021/08/08 06:25:48;;;;;;;24.42;7.35;;;;;;;15.44;98.61;100635.53;4978729;28;20059;-70
2021/08/08 06:28:16;;;;;;;20.20;7.03;;;;;;;15.55;99.00;100633.13;4976968;28;20935;-69
2021/08/08 06:30:45;;;;;;;18.67;5.95;;;;;;;15.26;96.49;100638.28;4980820;28;20057;-72
2021/08/08 06:33:15;;;;;;;23.52;6.70;;;;;;;15.18;99.33;100645.91;4978182;28;20618;-72
2021/08/08 06:35:43;;;;;;;24.83;7.70;;;;;;;15.34;97.64;100653.13;4976661;28;20070;-72
2021/08/08 06:38:11;;;;;;;22.58;6.88;;;;;;;15.34;96.80;100666.56;4976051;28;20477;-71
2021/08/08 06:40:39;;;;;;;26.58;7.82;;;;;;;15.46;96.99;100658.72;4979083;28;20073;-70
2021/08/08 06:43:06;;;;;;;22.30;6.75;;;;;;;15.32;96.69;100666.66;4979585;28;20065;-71
2021/08/08 06:45:35;;;;;;;18.02;5.82;;;;;;;15.90;95.03;100654.50;4976181;28;20080;-71
2021/08/08 06:48:04;;;;;;;26.40;6.80;;;;;;;15.82;93.85;100663.00;4978841;28;20066;-71
2021/08/08 06:50:32;;;;;;;18.65;5.47;;;;;;;15.55;94.75;100668.09;4977411;28;20097;-71
2021/08/08 06:53:00;;;;;;;20.70;5.93;;;;;;;15.87;94.95;100676.22;4980093;28;20393;-71
2021/08/08 06:55:28;;;;;;;21.77;5.78;;;;;;;16.17;93.31;100678.09;4978139;28;20063;-72
2021/08/08 06:57:55;;;;;;;25.27;6.20;;;;;;;16.64;91.73;100681.63;4980197;28;20085;-72
2021/08/08 07:00:24;;;;;;;21.73;6.18;;;;;;;16.65;90.24;100680.66;4978975;28;20077;-71
2021/08/08 07:03:11;;;;;;;19.73;6.30;;;;;;;16.20;91.00;100686.00;4980021;28;20333;-71
2021/08/08 07:05:39;;;;;;;13.13;5.53;;;;;;;15.87;91.71;100692.34;4976051;28;20094;-71
2021/08/08 07:08:09;;;;;;;20.73;5.68;;;;;;;16.39;91.08;100691.16;4978130;28;20370;-70
2021/08/08 07:10:37;;;;;;;20.92;5.50;;;;;;;16.13;90.37;100690.00;4976840;28;20062;-69
2021/08/08 07:13:05;;;;;;;25.00;8.25;;;;;;;15.72;90.58;100694.03;4979172;28;20068;-71
2021/08/08 07:15:33;;;;;;;18.80;6.63;;;;;;;15.98;90.73;100695.28;4980848;28;20311;-70
2021/08/08 07:18:01;;;;;;;17.55;6.00;;;;;;;15.76;90.89;100698.31;4980526;28;20129;-70
2021/08/08 07:20:30;;;;;;;22.65;7.30;;;;;;;15.55;91.19;100711.13;4982306;28;20046;-70
2021/08/08 07:22:58;;;;;;;26.17;8.13;;;;;;;15.63;90.29;100711.56;4980608;28;20772;-69
2021/08/08 07:25:26;;;;;;;19.50;7.68;;;;;;;15.72;90.48;100707.50;4980612;28;20066;-70
2021/08/08 07:27:53;;;;;;;22.92;7.57;;;;;;;15.61;88.78;100720.66;4979948;28;20362;-70
2021/08/08 07:30:21;;;;;;;23.10;8.05;;;;;;;15.42;90.86;100724.34;4980860;28;20163;-71
2021/08/08 07:32:49;;;;;;;24.17;8.40;;;;;;;15.41;89.92;100710.97;4981053;28;20303;-70
2021/08/08 07:35:18;;;;;;;27.20;9.43;;;;;;;15.44;90.20;100732.31;4981537;28;20140;-69
2021/08/08 07:37:47;;;;;;;20.70;8.63;;;;;;;15.53;90.29;100730.97;4982223;28;20145;-69
2021/08/08 07:40:15;;;;;;;25.38;9.25;;;;;;;15.45;89.23;100720.63;4979604;28;20359;-70
2021/08/08 07:42:48;;;;;;;27.48;10.05;;;;;;;15.52;90.65;100724.72;4984208;28;20073;-70
2021/08/08 07:45:17;;;;;;;27.30;8.45;;;;;;;15.61;90.29;100726.94;4979763;28;20053;-69
2021/08/08 07:47:44;;;;;;;28.30;8.23;;;;;;;15.59;91.14;100727.94;4982151;28;20153;-69
2021/08/08 07:50:12;;;;;;;18.58;7.63;;;;;;;15.78;89.96;100717.97;4981485;28;20220;-71
2021/08/08 07:52:40;;;;;;;36.08;9.80;;;;;;;15.83;87.93;100728.44;4978109;28;20386;-70
2021/08/08 07:55:11;;;;;;;21.63;8.50;;;;;;;15.76;88.70;100735.97;4982927;28;20066;-70
2021/08/08 07:57:39;;;;;;;20.17;7.82;;;;;;;15.75;86.99;100730.66;4979771;28;20375;-71
2021/08/08 08:00:08;;;;;;;24.92;8.35;;;;;;;15.71;87.72;100735.34;4981591;28;20373;-69
2021/08/08 08:02:36;;;;;;;26.27;8.57;;;;;;;15.78;88.08;100741.28;4980967;28;20066;-69
2021/08/08 08:05:05;;;;;;;19.40;8.15;;;;;;;15.93;88.02;100739.56;4981980;28;20066;-70
2021/08/08 08:07:33;;;;;;;19.85;8.45;;;;;;;15.90;86.44;100748.66;4980148;28;20608;-69
2021/08/08 08:10:00;;;;;;;23.50;7.97;;;;;;;16.20;85.39;100750.59;4980387;28;20066;-70
2021/08/08 08:12:30;;;;;;;22.48;7.60;;;;;;;16.14;85.46;100741.06;4981060;28;20054;-68
2021/08/08 08:14:57;;;;;;;13.93;7.25;;;;;;;16.10;86.23;100750.25;4979735;28;20098;-68
2021/08/08 08:17:25;;;;;;;21.42;7.78;;;;;;;16.00;86.04;100762.47;4980206;28;20152;-68
2021/08/08 08:19:53;;;;;;;18.08;7.68;;;;;;;16.00;84.84;100762.47;4980846;28;20112;-68
2021/08/08 08:22:21;;;;;;;19.20;7.07;;;;;;;16.11;85.85;100761.91;4982724;28;20347;-68
2021/08/08 08:24:49;;;;;;;16.70;7.68;;;;;;;16.24;85.02;100763.81;4980779;28;20071;-69
2021/08/08 08:27:17;;;;;;;19.95;8.07;;;;;;;16.20;85.16;100761.34;4981577;28;20105;-69
2021/08/08 08:29:46;;;;;;;20.70;7.20;;;;;;;16.32;84.77;100763.34;4982790;28;20349;-69
2021/08/08 08:32:14;;;;;;;18.75;7.35;;;;;;;16.23;83.71;100772.81;4978844;28;20066;-69
2021/08/08 08:34:43;;;;;;;24.58;7.40;;;;;;;16.21;84.28;100757.72;4978345;28;20450;-70
2021/08/08 08:37:11;;;;;;;17.20;6.32;;;;;;;16.22;83.54;100765.69;4980285;28;20070;-70
2021/08/08 08:39:38;;;;;;;20.67;6.22;;;;;;;16.24;83.09;100768.28;4981553;28;20342;-70
2021/08/08 08:42:09;;;;;;;24.65;7.07;;;;;;;16.28;83.80;100772.56;4980512;28;20126;-69
2021/08/08 08:44:37;;;;;;;16.98;6.95;;;;;;;16.34;83.86;100780.28;4979830;28;20075;-69
2021/08/08 08:47:13;;;;;;;18.30;5.70;;;;;;;16.33;83.49;100785.75;4986609;28;20411;-69
2021/08/08 08:49:46;;;;;;;18.42;5.65;;;;;;;16.43;82.27;100777.06;4980142;28;20066;-70
2021/08/08 08:52:15;;;;;;;12.88;5.82;;;;;;;16.35;81.14;100786.56;4978423;28;20099;-70
2021/08/08 08:54:43;;;;;;;19.92;7.22;;;;;;;16.30;81.44;100781.41;4978740;28;20070;-70
2021/08/08 08:57:11;;;;;;;17.73;6.30;;;;;;;16.33;82.06;100783.94;4979121;28;20065;-69
2021/08/08 08:59:39;;;;;;;23.90;6.72;;;;;;;16.53;81.28;100779.22;4978687;28;20080;-70
2021/08/08 09:02:08;;;;;;;19.27;6.72;;;;;;;16.52;79.90;100785.59;4978715;28;20613;-69
2021/08/08 09:04:37;;;;;;;22.98;5.90;;;;;;;16.71;79.93;100780.84;4981376;28;20082;-69
2021/08/08 09:07:05;;;;;;;16.45;5.97;;;;;;;17.00;78.99;100789.06;4977759;28;20113;-70
2021/08/08 09:09:34;;;;;;;16.08;5.47;;;;;;;17.00;78.42;100786.38;4980989;28;20146;-70
2021/08/08 09:12:02;;;;;;;14.63;5.63;;;;;;;16.99;78.55;100801.69;4978468;28;20070;-69
2021/08/08 09:14:33;;;;;;;16.33;4.88;;;;;;;16.91;78.95;100792.31;4980188;28;20069;-70
2021/08/08 09:17:01;;;;;;;15.93;5.85;;;;;;;16.90;78.57;100787.88;4980277;28;20529;-70
2021/08/08 09:19:34;;;;;;;19.95;5.68;;;;;;;17.06;77.30;100804.88;4979185;28;20042;-70
2021/08/08 09:22:02;;;;;;;16.42;6.13;;;;;;;17.00;76.87;100805.22;4981660;28;20121;-70
2021/08/08 09:24:32;;;;;;;14.80;5.13;;;;;;;16.85;76.03;100812.38;4978768;28;20105;-70
2021/08/08 09:27:02;;;;;;;16.17;5.78;;;;;;;16.80;75.43;100817.16;4982573;28;20050;-70
2021/08/08 09:29:30;;;;;;;16.55;5.05;;;;;;;16.93;76.32;100831.69;4980428;28;20066;-70
2021/08/08 09:31:59;;;;;;;14.98;5.25;;;;;;;16.84;75.22;100820.53;4978111;28;20081;-69
2021/08/08 09:34:30;;;;;;;13.82;5.22;;;;;;;16.78;75.45;100832.53;4980508;28;20062;-71
2021/08/08 09:37:03;;;;;;;16.42;4.88;;;;;;;17.01;75.12;100830.34;4977752;28;20160;-70
2021/08/08 09:39:34;;;;;;;17.55;5.90;;;;;;;17.09;74.47;100830.78;4979924;28;20058;-70
2021/08/08 09:42:11;;;;;;;15.15;5.32;;;;;;;17.02;75.09;100824.88;4979585;28;20453;-71
2021/08/08 09:44:50;;;;;;;14.93;5.45;;;;;;;17.17;74.67;100833.88;4979192;28;20089;-71
2021/08/08 09:47:19;;;;;;;14.98;4.75;;;;;;;17.30;74.19;100836.72;4980039;28;20145;-71
2021/08/08 09:49:59;;;;;;;13.32;5.32;;;;;;;17.31;73.64;100836.59;4980826;28;20113;-71
2021/08/08 09:52:29;;;;;;;14.15;4.75;;;;;;;17.43;73.36;100840.38;4978650;28;20115;-72
2021/08/08 09:54:56;;;;;;;14.13;4.80;;;;;;;17.60;72.91;100843.91;4977889;28;20070;-72
2021/08/08 09:57:25;;;;;;;12.60;5.07;;;;;;;18.07;71.50;100843.66;4980853;28;20066;-72
2021/08/08 09:59:53;;;;;;;11.88;4.30;;;;;;;17.82;71.62;100843.44;4978718;28;20066;-72
2021/08/08 10:02:22;;;;;;;13.70;4.47;;;;;;;17.57;72.74;100844.06;4979807;28;20094;-72
2021/08/08 10:04:51;;;;;;;18.25;5.78;;;;;;;17.27;76.79;100856.63;4978406;28;20137;-73
2021/08/08 10:07:19;;;;;;;14.77;6.07;;;;;;;17.13;77.04;100843.97;4979461;28;20108;-73
2021/08/08 10:09:52;;;;;;;14.32;5.90;;;;;;;17.42;75.59;100862.06;4981033;28;20385;-72
2021/08/08 10:12:41;;;;;;;13.85;6.03;;;;;;;17.67;72.60;100854.22;4977863;28;20794;-73
2021/08/08 10:15:09;;;;;;;11.98;5.10;;;;;;;17.74;72.75;100854.69;4979837;28;20050;-72
2021/08/08 10:17:40;;;;;;;17.13;5.45;;;;;;;17.72;71.36;100857.50;4978711;28;20420;-72
2021/08/08 10:20:08;;;;;;;11.43;4.43;;;;;;;17.73;71.79;100861.94;4978744;28;20066;-72
2021/08/08 10:22:42;;;;;;;14.43;4.93;;;;;;;17.60;71.42;100863.63;4977468;28;20074;-72
2021/08/08 10:25:11;;;;;;;;;;;;;;;17.89;72.46;100869.09;4981081;28;20070;-72
2021/08/08 10:27:39;;;;;;;15.32;5.43;;;;;;;18.54;70.57;100843.38;4980921;28;19933;-72
2021/08/08 10:30:08;;;;;;;12.85;6.25;;;;;;;18.40;70.06;100861.34;4979275;28;20315;-72
2021/08/08 10:32:36;;;;;;;12.82;5.30;;;;;;;17.84;68.85;100863.09;4980042;28;20464;-72
2021/08/08 10:35:12;;;;;;;14.95;4.82;;;;;;;17.92;70.52;100871.63;4978443;28;20176;-72
2021/08/08 10:37:41;;;;;;;10.68;5.28;;;;;;;17.82;70.88;100873.97;4979787;28;20153;-72
2021/08/08 10:40:12;;;;;;;11.95;5.43;;;;;;;18.37;70.46;100880.50;4979616;28;20066;-72
2021/08/08 10:42:44;;;;;;;11.85;4.90;;;;;;;18.51;68.49;100868.78;4978680;28;20070;-72
2021/08/08 10:45:21;;;;;;;13.80;5.03;;;;;;;19.25;66.17;100863.91;4979665;28;20058;-69
2021/08/08 10:48:00;;;;;;;12.70;4.90;;;;;;;18.89;64.33;100864.56;4983008;28;20398;-70
2021/08/08 10:50:39;;;;;;;11.68;5.22;;;;;;;19.34;65.40;100868.72;4983074;28;20093;-69
2021/08/08 10:53:21;;;;;;;15.85;4.97;;;;;;;19.38;63.15;100864.81;4984809;28;20042;-69
2021/08/08 10:56:02;;;;;;;14.95;5.05;;;;;;;19.21;64.11;100871.38;4983587;28;20068;-69
2021/08/08 10:58:33;;;;;;;13.73;4.70;;;;;;;18.98;64.83;100864.78;4982598;28;20516;-69
2021/08/08 11:01:01;;;;;;;11.48;5.25;;;;;;;19.70;63.97;100867.13;4980760;28;20176;-69
2021/08/08 11:03:29;;;;;;;11.57;4.47;;;;;;;19.75;64.40;100856.88;4982204;28;20070;-70
2021/08/08 11:05:57;;;;;;;9.65;4.35;;;;;;;19.10;63.06;100871.22;4983158;28;20112;-69
2021/08/08 11:08:25;;;;;;;13.05;4.40;;;;;;;18.94;64.28;100873.22;4982151;28;20145;-69
2021/08/08 11:10:54;;;;;;;11.77;4.57;;;;;;;18.57;64.80;100876.47;4982993;28;20536;-70
2021/08/08 11:13:24;;;;;;;17.83;5.10;;;;;;;18.03;71.90;100897.94;4984764;28;20486;-70
2021/08/08 11:15:53;;;;;;;13.23;4.40;;;;;;;18.00;72.08;100899.00;4982704;28;20046;-69
2021/08/08 11:18:30;;;;;;;11.13;4.70;;;;;;;18.43;71.13;100881.91;4984205;28;20089;-69
2021/08/08 11:20:58;;;;;;;10.10;4.82;;;;;;;18.62;72.41;100887.00;4983562;28;20165;-69
2021/08/08 11:23:28;;;;;;;14.18;4.72;;;;;;;18.80;69.94;100883.09;4983130;28;20046;-68